Station: Fingal  

  Atmospheric Gas Attenuation - ITU Rec 676-11   ----------------- dB/100km -----------------
Date Time Temp RH % AH g/m3 Dew Point Wind Direction Speed kph Gust kph Barometer mB Rainfall Since 9am 24GHz 47GHz 76GHz 122GHz 134GHz 241GHz
08/05 12:30 13.2 52 5.97 3.6 22 39 1013.1 0 14.0 22.0 30.0 78.2 65.8 224.2
08/05 12:20 13.5 49 5.73 3 35 41 1013.1 0 13.5 21.6 29.0 75.6 62.7 213.3
08/05 12:10 13.7 49 5.8 3.4 32 41 1013.1 0 13.6 21.6 29.2 76.1 63.4 215.7
08/05 12:00 13.6 49 5.77 3.1 32 44 1013.1 0 13.6 21.6 29.1 75.9 63.1 214.7
08/05 11:50 13.5 52 6.08 3.8 28 33 1013.1 0 14.2 22.1 30.3 79.0 66.9 228.0
08/05 11:40 13.1 53 6.05 3.7 19 24 1013.1 0 14.2 22.1 30.3 79.1 66.9 227.9
08/05 11:30 12.5 53 5.83 3.2 22 43 1013.1 0 13.7 21.9 29.7 77.5 64.7 220.2
08/05 11:20 12.5 53 5.83 3.2 28 37 1013.1 0 13.7 21.9 29.7 77.5 64.7 220.2
08/05 11:10 12.7 54 6.01 3.6 20 28 1013.1 0 14.1 22.2 30.3 79.1 66.7 227.3
08/05 11:00 13 53 6.01 3.7 22 35 1013.1 0 14.1 22.1 30.2 78.8 66.5 226.5
08/05 10:50 13 53 6.01 3.6 24 30 1013.1 0 14.1 22.1 30.2 78.8 66.5 226.5
08/05 10:40 12.5 53 5.83 3.2 28 33 1013.1 0 13.7 21.9 29.7 77.5 64.7 220.2
08/05 10:30 12.3 54 5.86 3.3 32 48 1013.1 0 13.8 22.0 29.9 78.0 65.2 222.1
08/05 10:20 11.9 54 5.72 2.9 44 57 1013.1 0 13.5 21.9 29.5 77.0 63.9 217.2
08/05 10:10 11.7 55 5.75 2.9 41 50 1013.1 0 13.6 22.0 29.7 77.5 64.4 219.0
08/05 10:00 11.7 57 5.96 3.5 28 48 1013.1 0 14.0 22.3 30.5 79.6 67.0 228.0
08/05 09:50 11.6 58 6.03 3.6 26 30 1013.1 0 14.2 22.5 30.8 80.4 67.9 231.3
08/05 09:40 11.3 58 5.92 3.3 35 48 1013.1 0 14.0 22.4 30.5 79.6 66.8 227.4
08/05 09:30 11.4 58 5.95 3.4 32 50 1013.1 0 14.0 22.4 30.6 79.8 67.1 228.4
08/05 09:20 11.3 57 5.82 3.1 28 37 1013.1 0 13.8 22.2 30.1 78.6 65.6 223.1
08/05 09:10 11.1 58 5.84 3.1 33 39 1013.1 0 13.8 22.3 30.3 79.0 66.0 224.5
08/05 09:00 11 57 5.71 2.8 33 61 1013.1 0 13.5 22.1 29.8 77.8 64.5 219.2
08/05 08:50 11.1 57 5.74 2.9 32 35 1013.1 0 13.6 22.1 29.9 78.0 64.8 220.2
08/05 08:40 10.8 57 5.64 2.8 28 37 1013.1 0 13.4 22.1 29.6 77.3 63.8 216.7
08/05 08:30 11 58 5.81 3.1 28 54 1013.1 0 13.8 22.3 30.2 78.8 65.7 223.5
08/05 08:20 10.9 59 5.87 3.2 30 48 1013.1 0 13.9 22.4 30.5 79.5 66.5 226.4
08/05 08:10 10.8 59 5.83 3.1 32 35 1013.1 0 13.8 22.4 30.4 79.2 66.1 224.9
08/05 08:00 10.8 59 5.83 3.1 26 54 1013.1 0 13.8 22.4 30.4 79.2 66.1 224.9
08/05 07:50 10.5 59 5.72 3 24 30 1013.1 0 13.6 22.3 30.1 78.4 65.0 221.0
08/05 07:40 10.6 60 5.86 3.1 24 37 1013.1 0 13.9 22.4 30.5 79.7 66.7 226.8
08/05 07:30 10.6 60 5.86 3.2 28 54 1013.1 0 13.9 22.4 30.5 79.7 66.7 226.8
08/05 07:20 10.4 61 5.88 3.2 22 28 1013.1 0 13.9 22.5 30.7 80.1 67.1 228.2
08/05 07:10 10.3 59 5.65 2.8 22 30 1013.1 0 13.4 22.2 29.9 77.9 64.3 218.5
08/05 07:00 10.6 59 5.76 2.9 32 54 1013.1 0 13.7 22.3 30.2 78.7 65.4 222.5
08/05 06:50 10.2 60 5.71 2.8 22 28 1013.1 0 13.6 22.3 30.1 78.6 65.1 221.4
08/05 06:40 10.4 59 5.69 2.9 33 44 1013.1 0 13.5 22.2 30.0 78.2 64.7 220.0
08/05 06:30 10.2 61 5.81 3 32 56 1013.1 0 13.8 22.5 30.5 79.6 66.4 225.8
08/05 06:20 10.3 62 5.94 3.3 41 52 1013.1 0 14.1 22.6 31.0 80.8 67.9 231.2
08/05 06:10 10.2 62 5.9 3.2 33 44 1013.1 0 14.0 22.6 30.8 80.5 67.5 229.7
08/05 06:00 10.4 61 5.88 3.2 35 65 1013.1 0 13.9 22.5 30.7 80.1 67.1 228.2
08/05 05:50 10.4 61 5.88 3.2 50 63 1013.1 0 13.9 22.5 30.7 80.1 67.1 228.2
08/05 05:40 10.4 61 5.88 3.2 28 33 1013.1 0 13.9 22.5 30.7 80.1 67.1 228.2
08/05 05:30 10.1 62 5.86 3.2 26 43 1013.1 0 13.9 22.6 30.7 80.2 67.1 228.2
08/05 05:20 10.6 60 5.86 3.1 39 44 1013.1 0 13.9 22.4 30.5 79.7 66.7 226.8
08/05 05:10 10.4 59 5.69 2.9 30 41 1013.1 0 13.5 22.2 30.0 78.2 64.7 220.0
08/05 05:00 10.5 59 5.72 2.8 37 63 1013.1 0 13.6 22.3 30.1 78.4 65.0 221.0
08/05 04:50 10.4 59 5.69 2.9 22 26 1013.1 0 13.5 22.2 30.0 78.2 64.7 220.0
08/05 04:40 10.6 58 5.66 2.7 19 24 1013.1 0 13.4 22.1 29.8 77.7 64.2 218.1
08/05 04:30 10.5 58 5.63 2.6 26 41 1013.1 0 13.4 22.1 29.7 77.5 63.9 217.1
08/05 04:20 10.8 57 5.64 2.8 39 52 1013.1 0 13.4 22.1 29.6 77.3 63.8 216.7
08/05 04:10 10.4 59 5.69 2.9 32 39 1013.1 0 13.5 22.2 30.0 78.2 64.7 220.0
08/05 04:00 10.7 59 5.8 3 33 54 1013.1 0 13.7 22.3 30.3 79.0 65.8 223.9
08/05 03:50 10.7 59 5.8 3 39 46 1013.1 0 13.7 22.3 30.3 79.0 65.8 223.9
08/05 03:40 10.7 59 5.8 3 39 46 1013.1 0 13.7 22.3 30.3 79.0 65.8 223.9
08/05 03:30 10.4 62 5.98 3.4 35 54 1013.1 0 14.1 22.7 31.1 81.1 68.3 232.6
08/05 03:20 10.4 63 6.07 3.6 37 43 1013.1 0 14.3 22.8 31.4 82.0 69.4 236.6
08/05 03:10 10.4 64 6.17 3.9 39 46 1013.1 0 14.5 23.0 31.8 83.0 70.7 241.0
08/05 03:00 10.4 65 6.27 4.1 35 52 1013.1 0 14.8 23.1 32.2 84.1 72.0 245.4
08/05 02:50 10.3 68 6.51 4.6 33 41 1013.1 0 15.3 23.5 33.1 86.6 75.1 256.4
08/05 02:40 10.5 68 6.6 4.8 32 39 1013.1 0 15.5 23.6 33.4 87.3 76.1 259.8
08/05 02:30 10.8 67 6.62 4.9 33 46 1013.1 0 15.5 23.6 33.4 87.2 76.0 259.7
08/05 02:20 11 66 6.61 4.9 33 37 1013.1 0 15.5 23.5 33.2 86.9 75.7 258.6
08/05 02:10 11.1 67 6.75 5.2 30 39 1013.1 0 15.8 23.7 33.7 88.2 77.4 264.6
08/05 02:00 11.2 67 6.79 5.3 22 35 1013.1 0 15.8 23.7 33.8 88.5 77.8 266.0
08/05 01:50 11.1 67 6.75 5.2 20 26 1013.1 0 15.8 23.7 33.7 88.2 77.4 264.6
08/05 01:40 11 67 6.71 5.1 20 24 1013.1 0 15.7 23.7 33.6 87.9 77.0 263.1
08/05 01:30 10.7 67 6.58 4.8 19 30 1013.1 0 15.4 23.5 33.2 86.9 75.6 258.3
08/05 01:20 10.7 68 6.68 5 13 19 1013.1 0 15.6 23.7 33.6 88.0 76.9 262.7
08/05 01:10 10.8 67 6.62 4.9 19 28 1013.1 0 15.5 23.6 33.4 87.2 76.0 259.7
08/05 01:00 9.9 68 6.35 4.3 15 24 1013.1 0 14.9 23.4 32.7 85.4 73.4 250.5
08/05 00:50 7.4 88 7 5.5 13 17 1013.1 0 16.4 25.1 36.4 95.2 84.5 289.1
08/05 00:40 3.2 85 5.13 1 4 4 1013.1 0 12.6 23.2 30.5 79.6 63.4 214.5
08/05 00:30 2.8 84 4.93 0.4 4 9 1013.1 0 12.2 23.0 29.9 77.8 61.1 206.3
08/05 00:20 3.9 79 4.99 0.6 2 2 1013.1 0 12.2 22.8 29.7 77.4 61.0 206.2
08/05 00:10 4.5 84 5.53 2 9 11 1013.1 0 13.4 23.5 31.6 82.5 67.7 229.5
08/05 00:00 3.5 83 5.11 0.9 4 6 1013.1 0 12.5 23.1 30.3 79.0 62.9 212.8
07/05 23:50 3.2 87 5.25 1.2 6 7 1013.1 0 12.8 23.4 31.0 80.9 65.0 220.1
07/05 23:40 2.5 85 4.89 0.2 9 9 1013.1 0 12.1 23.0 29.8 77.7 60.8 205.2
07/05 23:30 3.8 83 5.21 1.2 0 2 1013.1 0 12.7 23.1 30.6 79.8 64.0 216.6
07/05 23:20 3.3 85 5.16 1.1 0 0 1013.1 0 12.6 23.2 30.6 79.8 63.8 215.6
07/05 23:10 2.8 87 5.11 0.8 6 9 1013.1 0 12.5 23.2 30.6 79.8 63.5 214.7
07/05 23:00 2.4 87 4.97 0.5 4 7 1013.1 0 12.3 23.1 30.2 78.7 62.0 209.2
07/05 22:50 2.2 86 4.85 0.1 6 6 1013.1 0 12.0 23.0 29.8 77.6 60.5 204.1
07/05 22:40 2.5 86 4.95 0.4 2 2 1013.1 0 12.2 23.1 30.1 78.3 61.6 208.0
07/05 22:30 2.8 87 5.11 0.9 4 9 1013.1 0 12.5 23.2 30.6 79.8 63.5 214.7
07/05 22:20 1.9 86 4.75 -0.2 4 6 1013.1 0 11.8 22.9 29.5 76.8 59.4 200.2
07/05 22:10 2.6 83 4.81 0.1 0 0 1013.1 0 11.9 22.8 29.5 76.7 59.7 201.2
07/05 22:00 3 84 5 0.6 2 4 1013.1 0 12.3 23.0 30.1 78.4 61.9 209.0
07/05 21:50 3.2 84 5.07 0.7 0 0 1013.1 0 12.4 23.1 30.3 78.9 62.6 211.7
07/05 21:40 3.4 81 4.95 0.4 2 2 1013.1 0 12.2 22.8 29.7 77.4 60.9 205.6
07/05 21:30 3.7 80 4.99 0.6 2 6 1013.1 0 12.3 22.8 29.8 77.6 61.2 206.7
07/05 21:20 3.7 79 4.93 0.4 0 0 1013.1 0 12.1 22.7 29.5 76.9 60.4 203.9
07/05 21:10 4.6 76 5.03 0.7 4 6 1013.1 0 12.3 22.7 29.6 77.1 61.0 206.2
07/05 21:00 4.5 76 5 0.6 4 6 1013.1 0 12.2 22.6 29.5 76.9 60.7 205.1
07/05 20:50 4.8 72 4.83 0.3 6 6 1013.1 0 11.9 22.3 28.7 74.8 58.3 196.6
07/05 20:40 5.2 71 4.89 0.5 0 0 1013.1 0 12.0 22.3 28.8 75.1 58.8 198.3
07/05 20:30 5.7 70 4.98 0.7 4 7 1013.1 0 12.2 22.3 29.0 75.5 59.5 201.1
07/05 20:20 5.5 70 4.92 0.4 0 0 1013.1 0 12.0 22.3 28.8 75.1 58.9 198.9
07/05 20:10 5.8 69 4.95 0.5 6 7 1013.1 0 12.1 22.2 28.8 75.1 59.1 199.5
07/05 20:00 5.5 70 4.92 0.5 4 7 1013.1 0 12.0 22.3 28.8 75.1 58.9 198.9

Last Refresh: 08-May-2026 12:08:01

Bureau of Meteorology